sensor_id;sensor_type;location;lat;lon;timestamp;P1;durP1;ratioP1;P2;durP2;ratioP2
2850;SDS011;1433;49.976;8.342;2022-09-14T00:00:06;19.67;;;16.30;;
2850;SDS011;1433;49.976;8.342;2022-09-14T00:02:35;19.07;;;17.23;;
2850;SDS011;1433;49.976;8.342;2022-09-14T00:05:01;23.13;;;18.87;;
2850;SDS011;1433;49.976;8.342;2022-09-14T00:07:27;21.10;;;18.77;;
2850;SDS011;1433;49.976;8.342;2022-09-14T00:09:54;19.47;;;17.37;;
2850;SDS011;1433;49.976;8.342;2022-09-14T00:12:20;21.90;;;18.13;;
2850;SDS011;1433;49.976;8.342;2022-09-14T00:14:46;18.17;;;16.30;;
2850;SDS011;1433;49.976;8.342;2022-09-14T00:17:13;19.57;;;17.40;;
2850;SDS011;1433;49.976;8.342;2022-09-14T00:19:39;21.00;;;18.70;;
2850;SDS011;1433;49.976;8.342;2022-09-14T00:22:05;23.67;;;21.47;;
2850;SDS011;1433;49.976;8.342;2022-09-14T00:24:31;22.10;;;19.80;;
2850;SDS011;1433;49.976;8.342;2022-09-14T00:26:59;24.10;;;21.50;;
2850;SDS011;1433;49.976;8.342;2022-09-14T00:29:28;22.30;;;20.00;;
2850;SDS011;1433;49.976;8.342;2022-09-14T00:31:55;22.97;;;20.60;;
2850;SDS011;1433;49.976;8.342;2022-09-14T00:34:21;34.00;;;27.50;;
2850;SDS011;1433;49.976;8.342;2022-09-14T00:36:48;28.37;;;22.33;;
2850;SDS011;1433;49.976;8.342;2022-09-14T00:39:16;25.27;;;22.57;;
2850;SDS011;1433;49.976;8.342;2022-09-14T00:41:44;31.93;;;25.20;;
2850;SDS011;1433;49.976;8.342;2022-09-14T00:46:42;24.23;;;20.70;;
2850;SDS011;1433;49.976;8.342;2022-09-14T00:51:53;24.07;;;21.77;;
2850;SDS011;1433;49.976;8.342;2022-09-14T00:54:21;27.90;;;23.10;;
2850;SDS011;1433;49.976;8.342;2022-09-14T00:56:47;24.10;;;21.80;;
2850;SDS011;1433;49.976;8.342;2022-09-14T00:59:16;25.80;;;22.87;;
2850;SDS011;1433;49.976;8.342;2022-09-14T01:01:44;27.80;;;23.83;;
2850;SDS011;1433;49.976;8.342;2022-09-14T01:04:10;29.17;;;26.30;;
2850;SDS011;1433;49.976;8.342;2022-09-14T01:06:41;35.83;;;26.80;;
2850;SDS011;1433;49.976;8.342;2022-09-14T01:09:30;27.47;;;24.60;;
2850;SDS011;1433;49.976;8.342;2022-09-14T01:14:55;29.27;;;25.50;;
2850;SDS011;1433;49.976;8.342;2022-09-14T01:23:16;30.63;;;26.87;;
2850;SDS011;1433;49.976;8.342;2022-09-14T01:28:31;36.70;;;28.03;;
2850;SDS011;1433;49.976;8.342;2022-09-14T01:34:08;33.20;;;28.87;;
2850;SDS011;1433;49.976;8.342;2022-09-14T01:36:36;36.70;;;28.07;;
2850;SDS011;1433;49.976;8.342;2022-09-14T01:39:07;32.90;;;29.30;;
2850;SDS011;1433;49.976;8.342;2022-09-14T01:41:37;33.63;;;27.87;;
2850;SDS011;1433;49.976;8.342;2022-09-14T01:44:11;45.97;;;33.47;;
2850;SDS011;1433;49.976;8.342;2022-09-14T01:46:47;57.53;;;38.60;;
2850;SDS011;1433;49.976;8.342;2022-09-14T01:49:17;65.30;;;38.40;;
2850;SDS011;1433;49.976;8.342;2022-09-14T01:51:52;58.97;;;40.00;;
2850;SDS011;1433;49.976;8.342;2022-09-14T01:54:36;48.60;;;32.23;;
2850;SDS011;1433;49.976;8.342;2022-09-14T01:57:10;48.00;;;32.57;;
2850;SDS011;1433;49.976;8.342;2022-09-14T01:59:44;40.17;;;31.80;;
2850;SDS011;1433;49.976;8.342;2022-09-14T02:02:10;39.50;;;31.40;;
2850;SDS011;1433;49.976;8.342;2022-09-14T02:04:44;47.43;;;33.37;;
2850;SDS011;1433;49.976;8.342;2022-09-14T02:07:18;50.53;;;35.33;;
2850;SDS011;1433;49.976;8.342;2022-09-14T02:09:45;47.03;;;33.47;;
2850;SDS011;1433;49.976;8.342;2022-09-14T02:12:13;32.23;;;27.10;;
2850;SDS011;1433;49.976;8.342;2022-09-14T02:14:41;40.23;;;30.00;;
2850;SDS011;1433;49.976;8.342;2022-09-14T02:17:09;30.93;;;25.70;;
2850;SDS011;1433;49.976;8.342;2022-09-14T02:19:36;34.57;;;28.27;;
2850;SDS011;1433;49.976;8.342;2022-09-14T02:22:08;42.20;;;30.70;;
2850;SDS011;1433;49.976;8.342;2022-09-14T02:24:34;54.70;;;28.97;;
2850;SDS011;1433;49.976;8.342;2022-09-14T02:27:01;37.17;;;26.10;;
2850;SDS011;1433;49.976;8.342;2022-09-14T02:29:27;26.73;;;23.70;;
2850;SDS011;1433;49.976;8.342;2022-09-14T02:31:59;30.03;;;22.53;;
2850;SDS011;1433;49.976;8.342;2022-09-14T02:34:36;27.60;;;24.50;;
2850;SDS011;1433;49.976;8.342;2022-09-14T02:37:14;30.07;;;24.00;;
2850;SDS011;1433;49.976;8.342;2022-09-14T02:39:46;44.43;;;32.93;;
2850;SDS011;1433;49.976;8.342;2022-09-14T02:43:02;29.67;;;24.10;;
2850;SDS011;1433;49.976;8.342;2022-09-14T02:45:01;30.90;;;25.97;;
2850;SDS011;1433;49.976;8.342;2022-09-14T02:47:31;38.90;;;28.73;;
2850;SDS011;1433;49.976;8.342;2022-09-14T02:50:20;31.97;;;26.07;;
2850;SDS011;1433;49.976;8.342;2022-09-14T02:55:42;34.23;;;26.10;;
2850;SDS011;1433;49.976;8.342;2022-09-14T02:58:14;35.73;;;26.93;;
2850;SDS011;1433;49.976;8.342;2022-09-14T03:00:46;35.13;;;25.20;;
2850;SDS011;1433;49.976;8.342;2022-09-14T03:03:11;27.70;;;22.90;;
2850;SDS011;1433;49.976;8.342;2022-09-14T03:05:38;34.40;;;24.83;;
2850;SDS011;1433;49.976;8.342;2022-09-14T03:08:05;64.43;;;23.20;;
2850;SDS011;1433;49.976;8.342;2022-09-14T03:10:35;29.30;;;21.40;;
2850;SDS011;1433;49.976;8.342;2022-09-14T03:13:02;26.23;;;20.67;;
2850;SDS011;1433;49.976;8.342;2022-09-14T03:15:29;29.40;;;22.00;;
2850;SDS011;1433;49.976;8.342;2022-09-14T03:17:55;49.87;;;26.40;;
2850;SDS011;1433;49.976;8.342;2022-09-14T03:20:23;58.40;;;34.27;;
2850;SDS011;1433;49.976;8.342;2022-09-14T03:22:56;66.50;;;35.37;;
2850;SDS011;1433;49.976;8.342;2022-09-14T03:25:22;59.73;;;32.73;;
2850;SDS011;1433;49.976;8.342;2022-09-14T03:27:48;43.67;;;29.90;;
2850;SDS011;1433;49.976;8.342;2022-09-14T03:30:16;29.27;;;21.87;;
2850;SDS011;1433;49.976;8.342;2022-09-14T03:32:43;57.80;;;32.35;;
2850;SDS011;1433;49.976;8.342;2022-09-14T03:35:10;32.40;;;22.40;;
2850;SDS011;1433;49.976;8.342;2022-09-14T03:37:37;34.53;;;24.40;;
2850;SDS011;1433;49.976;8.342;2022-09-14T03:40:04;36.23;;;25.60;;
2850;SDS011;1433;49.976;8.342;2022-09-14T03:42:32;47.40;;;27.90;;
2850;SDS011;1433;49.976;8.342;2022-09-14T03:44:58;32.00;;;24.00;;
2850;SDS011;1433;49.976;8.342;2022-09-14T03:47:24;56.07;;;32.60;;
2850;SDS011;1433;49.976;8.342;2022-09-14T03:49:51;59.50;;;30.77;;
2850;SDS011;1433;49.976;8.342;2022-09-14T03:52:17;56.43;;;30.00;;
2850;SDS011;1433;49.976;8.342;2022-09-14T03:54:44;35.67;;;25.97;;
2850;SDS011;1433;49.976;8.342;2022-09-14T03:57:10;39.03;;;26.37;;
2850;SDS011;1433;49.976;8.342;2022-09-14T03:59:37;43.40;;;25.17;;
2850;SDS011;1433;49.976;8.342;2022-09-14T04:02:03;38.70;;;29.27;;
2850;SDS011;1433;49.976;8.342;2022-09-14T04:04:29;41.20;;;28.83;;
2850;SDS011;1433;49.976;8.342;2022-09-14T04:06:55;52.30;;;29.80;;
2850;SDS011;1433;49.976;8.342;2022-09-14T04:09:21;53.47;;;28.87;;
2850;SDS011;1433;49.976;8.342;2022-09-14T04:11:47;61.30;;;34.97;;
2850;SDS011;1433;49.976;8.342;2022-09-14T04:14:13;66.97;;;33.97;;
2850;SDS011;1433;49.976;8.342;2022-09-14T04:16:40;56.23;;;35.67;;
2850;SDS011;1433;49.976;8.342;2022-09-14T04:19:08;62.30;;;35.20;;
2850;SDS011;1433;49.976;8.342;2022-09-14T04:21:35;53.80;;;31.07;;
2850;SDS011;1433;49.976;8.342;2022-09-14T04:24:01;9.37;;;4.63;;
2850;SDS011;1433;49.976;8.342;2022-09-14T04:26:28;1.30;;;1.00;;
2850;SDS011;1433;49.976;8.342;2022-09-14T04:28:56;0.90;;;0.70;;
2850;SDS011;1433;49.976;8.342;2022-09-14T04:31:23;0.90;;;0.67;;
2850;SDS011;1433;49.976;8.342;2022-09-14T04:33:50;1.10;;;1.00;;
2850;SDS011;1433;49.976;8.342;2022-09-14T04:36:18;1.00;;;0.90;;
2850;SDS011;1433;49.976;8.342;2022-09-14T04:38:51;0.90;;;0.67;;
2850;SDS011;1433;49.976;8.342;2022-09-14T04:41:18;0.90;;;0.70;;
2850;SDS011;1433;49.976;8.342;2022-09-14T04:43:46;1.00;;;0.70;;
2850;SDS011;1433;49.976;8.342;2022-09-14T04:46:16;0.90;;;0.67;;
2850;SDS011;1433;49.976;8.342;2022-09-14T04:48:44;0.90;;;0.70;;
2850;SDS011;1433;49.976;8.342;2022-09-14T04:51:11;0.90;;;0.70;;
2850;SDS011;1433;49.976;8.342;2022-09-14T04:53:41;0.90;;;0.70;;
2850;SDS011;1433;49.976;8.342;2022-09-14T04:56:09;0.93;;;0.70;;
2850;SDS011;1433;49.976;8.342;2022-09-14T04:58:38;1.00;;;0.70;;
2850;SDS011;1433;49.976;8.342;2022-09-14T05:01:11;0.90;;;0.80;;
2850;SDS011;1433;49.976;8.342;2022-09-14T05:03:36;0.90;;;0.70;;
2850;SDS011;1433;49.976;8.342;2022-09-14T05:06:10;0.90;;;0.67;;
2850;SDS011;1433;49.976;8.342;2022-09-14T05:08:35;0.90;;;0.70;;
2850;SDS011;1433;49.976;8.342;2022-09-14T05:11:04;0.90;;;0.70;;
2850;SDS011;1433;49.976;8.342;2022-09-14T05:13:32;0.90;;;0.70;;
2850;SDS011;1433;49.976;8.342;2022-09-14T05:16:08;0.90;;;0.70;;
2850;SDS011;1433;49.976;8.342;2022-09-14T05:18:40;1.10;;;0.80;;
2850;SDS011;1433;49.976;8.342;2022-09-14T05:21:07;0.90;;;0.60;;
2850;SDS011;1433;49.976;8.342;2022-09-14T05:23:35;0.90;;;0.70;;
2850;SDS011;1433;49.976;8.342;2022-09-14T05:26:01;0.90;;;0.70;;
2850;SDS011;1433;49.976;8.342;2022-09-14T05:28:28;0.90;;;0.70;;
2850;SDS011;1433;49.976;8.342;2022-09-14T05:30:54;0.90;;;0.63;;
2850;SDS011;1433;49.976;8.342;2022-09-14T05:33:21;0.93;;;0.70;;
2850;SDS011;1433;49.976;8.342;2022-09-14T05:35:48;0.90;;;0.70;;
2850;SDS011;1433;49.976;8.342;2022-09-14T05:38:15;0.97;;;0.70;;
2850;SDS011;1433;49.976;8.342;2022-09-14T05:40:41;0.90;;;0.73;;
2850;SDS011;1433;49.976;8.342;2022-09-14T05:43:08;0.97;;;0.70;;
2850;SDS011;1433;49.976;8.342;2022-09-14T05:45:34;0.90;;;0.80;;
2850;SDS011;1433;49.976;8.342;2022-09-14T05:48:00;0.90;;;0.70;;
2850;SDS011;1433;49.976;8.342;2022-09-14T05:50:33;0.90;;;0.70;;
2850;SDS011;1433;49.976;8.342;2022-09-14T05:52:57;1.00;;;0.70;;
2850;SDS011;1433;49.976;8.342;2022-09-14T05:55:24;1.00;;;0.70;;
2850;SDS011;1433;49.976;8.342;2022-09-14T05:57:51;0.90;;;0.70;;
2850;SDS011;1433;49.976;8.342;2022-09-14T06:00:17;0.90;;;0.70;;
2850;SDS011;1433;49.976;8.342;2022-09-14T06:02:45;1.00;;;0.80;;
2850;SDS011;1433;49.976;8.342;2022-09-14T06:05:12;1.00;;;0.87;;
2850;SDS011;1433;49.976;8.342;2022-09-14T06:07:38;0.90;;;0.70;;
2850;SDS011;1433;49.976;8.342;2022-09-14T06:10:04;0.90;;;0.70;;
2850;SDS011;1433;49.976;8.342;2022-09-14T06:12:31;1.10;;;0.90;;
2850;SDS011;1433;49.976;8.342;2022-09-14T06:14:57;0.90;;;0.70;;
2850;SDS011;1433;49.976;8.342;2022-09-14T06:17:23;0.90;;;0.60;;
2850;SDS011;1433;49.976;8.342;2022-09-14T06:19:50;1.77;;;1.67;;
2850;SDS011;1433;49.976;8.342;2022-09-14T06:22:16;0.90;;;0.63;;
2850;SDS011;1433;49.976;8.342;2022-09-14T06:24:42;0.97;;;0.70;;
2850;SDS011;1433;49.976;8.342;2022-09-14T06:27:08;0.90;;;0.70;;
2850;SDS011;1433;49.976;8.342;2022-09-14T06:29:34;0.90;;;0.70;;
2850;SDS011;1433;49.976;8.342;2022-09-14T06:32:01;0.90;;;0.60;;
2850;SDS011;1433;49.976;8.342;2022-09-14T06:34:27;0.90;;;0.70;;
2850;SDS011;1433;49.976;8.342;2022-09-14T06:36:55;0.90;;;0.70;;
2850;SDS011;1433;49.976;8.342;2022-09-14T06:39:21;0.90;;;0.70;;
2850;SDS011;1433;49.976;8.342;2022-09-14T06:41:47;0.90;;;0.70;;
2850;SDS011;1433;49.976;8.342;2022-09-14T06:44:15;0.97;;;0.70;;
2850;SDS011;1433;49.976;8.342;2022-09-14T06:46:42;0.90;;;0.70;;
2850;SDS011;1433;49.976;8.342;2022-09-14T06:49:10;0.90;;;0.70;;
2850;SDS011;1433;49.976;8.342;2022-09-14T06:51:44;0.90;;;0.70;;
2850;SDS011;1433;49.976;8.342;2022-09-14T06:54:12;0.90;;;0.70;;
2850;SDS011;1433;49.976;8.342;2022-09-14T06:56:40;0.90;;;0.70;;
2850;SDS011;1433;49.976;8.342;2022-09-14T06:59:08;0.90;;;0.70;;
2850;SDS011;1433;49.976;8.342;2022-09-14T07:01:36;1.00;;;0.70;;
2850;SDS011;1433;49.976;8.342;2022-09-14T07:04:03;1.00;;;0.70;;
2850;SDS011;1433;49.976;8.342;2022-09-14T07:06:31;0.90;;;0.70;;
2850;SDS011;1433;49.976;8.342;2022-09-14T07:09:02;1.00;;;0.70;;
2850;SDS011;1433;49.976;8.342;2022-09-14T07:11:28;1.00;;;0.70;;
2850;SDS011;1433;49.976;8.342;2022-09-14T07:13:55;0.90;;;0.70;;
2850;SDS011;1433;49.976;8.342;2022-09-14T07:16:25;0.97;;;0.80;;
2850;SDS011;1433;49.976;8.342;2022-09-14T07:18:52;1.00;;;0.70;;
2850;SDS011;1433;49.976;8.342;2022-09-14T07:21:19;1.73;;;1.63;;
2850;SDS011;1433;49.976;8.342;2022-09-14T07:23:46;1.00;;;0.70;;
2850;SDS011;1433;49.976;8.342;2022-09-14T07:28:42;1.00;;;0.70;;
2850;SDS011;1433;49.976;8.342;2022-09-14T07:33:46;1.00;;;0.70;;
2850;SDS011;1433;49.976;8.342;2022-09-14T07:36:13;0.97;;;0.70;;
2850;SDS011;1433;49.976;8.342;2022-09-14T07:38:39;0.90;;;0.70;;
2850;SDS011;1433;49.976;8.342;2022-09-14T07:41:06;1.00;;;0.70;;
2850;SDS011;1433;49.976;8.342;2022-09-14T07:43:32;1.00;;;0.70;;
2850;SDS011;1433;49.976;8.342;2022-09-14T07:46:02;1.00;;;0.70;;
2850;SDS011;1433;49.976;8.342;2022-09-14T07:48:30;1.00;;;0.80;;
2850;SDS011;1433;49.976;8.342;2022-09-14T07:50:58;1.00;;;0.70;;
2850;SDS011;1433;49.976;8.342;2022-09-14T07:53:26;0.90;;;0.67;;
2850;SDS011;1433;49.976;8.342;2022-09-14T07:55:52;0.90;;;0.70;;
2850;SDS011;1433;49.976;8.342;2022-09-14T07:58:18;0.90;;;0.70;;
2850;SDS011;1433;49.976;8.342;2022-09-14T08:00:44;0.90;;;0.60;;
2850;SDS011;1433;49.976;8.342;2022-09-14T08:03:10;1.00;;;0.70;;
2850;SDS011;1433;49.976;8.342;2022-09-14T08:05:36;0.90;;;0.70;;
2850;SDS011;1433;49.976;8.342;2022-09-14T08:08:02;0.90;;;0.70;;
2850;SDS011;1433;49.976;8.342;2022-09-14T08:10:29;0.90;;;0.70;;
2850;SDS011;1433;49.976;8.342;2022-09-14T08:12:55;0.90;;;0.70;;
2850;SDS011;1433;49.976;8.342;2022-09-14T08:15:21;0.90;;;0.70;;
2850;SDS011;1433;49.976;8.342;2022-09-14T08:17:48;0.93;;;0.70;;
2850;SDS011;1433;49.976;8.342;2022-09-14T08:20:15;0.90;;;0.70;;
2850;SDS011;1433;49.976;8.342;2022-09-14T08:22:42;1.27;;;1.00;;
2850;SDS011;1433;49.976;8.342;2022-09-14T08:25:09;1.00;;;0.90;;
2850;SDS011;1433;49.976;8.342;2022-09-14T08:27:36;0.90;;;0.70;;
2850;SDS011;1433;49.976;8.342;2022-09-14T08:30:03;1.00;;;0.70;;
2850;SDS011;1433;49.976;8.342;2022-09-14T08:32:30;0.90;;;0.70;;
2850;SDS011;1433;49.976;8.342;2022-09-14T08:34:56;0.90;;;0.70;;
2850;SDS011;1433;49.976;8.342;2022-09-14T08:37:23;0.90;;;0.70;;
2850;SDS011;1433;49.976;8.342;2022-09-14T08:39:49;1.53;;;0.90;;
2850;SDS011;1433;49.976;8.342;2022-09-14T08:42:16;0.90;;;0.70;;
2850;SDS011;1433;49.976;8.342;2022-09-14T08:44:52;0.90;;;0.70;;
2850;SDS011;1433;49.976;8.342;2022-09-14T08:47:22;0.90;;;0.70;;
2850;SDS011;1433;49.976;8.342;2022-09-14T08:52:31;0.90;;;0.70;;
2850;SDS011;1433;49.976;8.342;2022-09-14T08:55:22;0.90;;;0.70;;
2850;SDS011;1433;49.976;8.342;2022-09-14T08:57:58;1.30;;;0.80;;
2850;SDS011;1433;49.976;8.342;2022-09-14T09:09:02;0.90;;;0.70;;
2850;SDS011;1433;49.976;8.342;2022-09-14T09:11:38;0.90;;;0.70;;
2850;SDS011;1433;49.976;8.342;2022-09-14T09:14:18;0.90;;;0.70;;
2850;SDS011;1433;49.976;8.342;2022-09-14T09:16:48;0.90;;;0.70;;
2850;SDS011;1433;49.976;8.342;2022-09-14T09:19:18;0.90;;;0.70;;
2850;SDS011;1433;49.976;8.342;2022-09-14T09:21:55;0.90;;;0.70;;
2850;SDS011;1433;49.976;8.342;2022-09-14T09:24:33;0.90;;;0.70;;
2850;SDS011;1433;49.976;8.342;2022-09-14T09:27:12;0.90;;;0.70;;
2850;SDS011;1433;49.976;8.342;2022-09-14T09:29:37;0.90;;;0.70;;
2850;SDS011;1433;49.976;8.342;2022-09-14T09:32:17;0.90;;;0.70;;
2850;SDS011;1433;49.976;8.342;2022-09-14T09:34:58;0.90;;;0.70;;
2850;SDS011;1433;49.976;8.342;2022-09-14T09:37:39;1.63;;;1.53;;
2850;SDS011;1433;49.976;8.342;2022-09-14T09:40:13;5.67;;;5.17;;
2850;SDS011;1433;49.976;8.342;2022-09-14T09:43:02;6.33;;;5.83;;
2850;SDS011;1433;49.976;8.342;2022-09-14T09:46:12;5.50;;;5.00;;
2850;SDS011;1433;49.976;8.342;2022-09-14T09:48:09;5.33;;;4.93;;
2850;SDS011;1433;49.976;8.342;2022-09-14T09:50:35;4.80;;;4.40;;
2850;SDS011;1433;49.976;8.342;2022-09-14T09:53:03;4.60;;;4.20;;
2850;SDS011;1433;49.976;8.342;2022-09-14T09:55:36;4.30;;;3.90;;
2850;SDS011;1433;49.976;8.342;2022-09-14T10:00:54;3.83;;;3.53;;
2850;SDS011;1433;49.976;8.342;2022-09-14T10:03:36;4.23;;;3.80;;
2850;SDS011;1433;49.976;8.342;2022-09-14T10:06:04;4.87;;;4.53;;
2850;SDS011;1433;49.976;8.342;2022-09-14T10:08:41;4.40;;;4.10;;
2850;SDS011;1433;49.976;8.342;2022-09-14T10:11:30;4.00;;;3.67;;
2850;SDS011;1433;49.976;8.342;2022-09-14T10:14:03;4.30;;;3.97;;
2850;SDS011;1433;49.976;8.342;2022-09-14T10:16:37;4.10;;;3.80;;
2850;SDS011;1433;49.976;8.342;2022-09-14T10:19:17;5.67;;;4.13;;
2850;SDS011;1433;49.976;8.342;2022-09-14T10:21:59;4.00;;;3.70;;
2850;SDS011;1433;49.976;8.342;2022-09-14T10:24:28;4.00;;;3.30;;
2850;SDS011;1433;49.976;8.342;2022-09-14T10:26:54;4.07;;;3.77;;
2850;SDS011;1433;49.976;8.342;2022-09-14T10:29:40;3.70;;;3.40;;
2850;SDS011;1433;49.976;8.342;2022-09-14T10:32:15;4.63;;;3.90;;
2850;SDS011;1433;49.976;8.342;2022-09-14T10:34:43;4.93;;;4.60;;
2850;SDS011;1433;49.976;8.342;2022-09-14T10:37:12;4.87;;;4.47;;
2850;SDS011;1433;49.976;8.342;2022-09-14T10:39:54;4.70;;;4.30;;
2850;SDS011;1433;49.976;8.342;2022-09-14T10:42:24;4.67;;;4.27;;
2850;SDS011;1433;49.976;8.342;2022-09-14T10:47:50;3.80;;;3.50;;
2850;SDS011;1433;49.976;8.342;2022-09-14T10:56:02;4.60;;;4.20;;
2850;SDS011;1433;49.976;8.342;2022-09-14T11:04:34;4.07;;;3.70;;
2850;SDS011;1433;49.976;8.342;2022-09-14T11:09:54;5.63;;;5.13;;
2850;SDS011;1433;49.976;8.342;2022-09-14T11:18:05;5.23;;;4.83;;
2850;SDS011;1433;49.976;8.342;2022-09-14T11:26:18;7.30;;;5.03;;
2850;SDS011;1433;49.976;8.342;2022-09-14T11:28:47;5.40;;;4.57;;
2850;SDS011;1433;49.976;8.342;2022-09-14T11:31:25;5.40;;;4.90;;
2850;SDS011;1433;49.976;8.342;2022-09-14T11:33:58;5.97;;;5.37;;
2850;SDS011;1433;49.976;8.342;2022-09-14T11:36:31;6.30;;;5.80;;
2850;SDS011;1433;49.976;8.342;2022-09-14T11:39:19;4.80;;;4.40;;
2850;SDS011;1433;49.976;8.342;2022-09-14T11:42:00;6.50;;;5.53;;
2850;SDS011;1433;49.976;8.342;2022-09-14T11:44:34;6.63;;;5.80;;
2850;SDS011;1433;49.976;8.342;2022-09-14T11:47:04;6.20;;;5.70;;
2850;SDS011;1433;49.976;8.342;2022-09-14T11:52:18;5.57;;;5.17;;
2850;SDS011;1433;49.976;8.342;2022-09-14T11:54:46;7.43;;;6.17;;
2850;SDS011;1433;49.976;8.342;2022-09-14T11:57:19;9.30;;;6.93;;
2850;SDS011;1433;49.976;8.342;2022-09-14T11:59:49;7.50;;;6.10;;
2850;SDS011;1433;49.976;8.342;2022-09-14T12:25:56;7.53;;;6.57;;
2850;SDS011;1433;49.976;8.342;2022-09-14T12:31:27;9.23;;;7.23;;
2850;SDS011;1433;49.976;8.342;2022-09-14T12:36:54;10.77;;;8.97;;
2850;SDS011;1433;49.976;8.342;2022-09-14T13:04:42;9.63;;;8.83;;
2850;SDS011;1433;49.976;8.342;2022-09-14T13:07:17;10.87;;;9.30;;
2850;SDS011;1433;49.976;8.342;2022-09-14T13:09:45;9.53;;;8.40;;
2850;SDS011;1433;49.976;8.342;2022-09-14T13:12:14;9.00;;;8.20;;
2850;SDS011;1433;49.976;8.342;2022-09-14T13:15:04;8.90;;;8.00;;
2850;SDS011;1433;49.976;8.342;2022-09-14T13:17:29;9.93;;;8.83;;
2850;SDS011;1433;49.976;8.342;2022-09-14T13:20:00;8.90;;;8.00;;
2850;SDS011;1433;49.976;8.342;2022-09-14T13:22:29;11.17;;;8.87;;
2850;SDS011;1433;49.976;8.342;2022-09-14T13:24:58;9.93;;;9.03;;
2850;SDS011;1433;49.976;8.342;2022-09-14T13:27:30;11.37;;;10.37;;
2850;SDS011;1433;49.976;8.342;2022-09-14T13:32:49;11.00;;;9.00;;
2850;SDS011;1433;49.976;8.342;2022-09-14T13:35:17;11.30;;;9.97;;
2850;SDS011;1433;49.976;8.342;2022-09-14T13:37:49;13.53;;;9.50;;
2850;SDS011;1433;49.976;8.342;2022-09-14T13:40:15;10.67;;;9.17;;
2850;SDS011;1433;49.976;8.342;2022-09-14T13:42:43;13.03;;;9.07;;
2850;SDS011;1433;49.976;8.342;2022-09-14T13:45:11;12.20;;;10.87;;
2850;SDS011;1433;49.976;8.342;2022-09-14T13:47:38;10.93;;;9.87;;
2850;SDS011;1433;49.976;8.342;2022-09-14T13:50:05;11.83;;;10.53;;
2850;SDS011;1433;49.976;8.342;2022-09-14T13:52:35;12.53;;;10.40;;
2850;SDS011;1433;49.976;8.342;2022-09-14T13:55:16;12.07;;;10.17;;
2850;SDS011;1433;49.976;8.342;2022-09-14T13:58:10;10.60;;;9.60;;
2850;SDS011;1433;49.976;8.342;2022-09-14T14:00:52;11.37;;;10.30;;
2850;SDS011;1433;49.976;8.342;2022-09-14T14:03:28;12.30;;;10.67;;
2850;SDS011;1433;49.976;8.342;2022-09-14T14:05:56;12.93;;;10.53;;
2850;SDS011;1433;49.976;8.342;2022-09-14T14:08:31;14.10;;;10.27;;
2850;SDS011;1433;49.976;8.342;2022-09-14T14:11:04;9.57;;;8.67;;
2850;SDS011;1433;49.976;8.342;2022-09-14T14:13:33;12.77;;;9.43;;
2850;SDS011;1433;49.976;8.342;2022-09-14T14:18:56;19.43;;;10.03;;
2850;SDS011;1433;49.976;8.342;2022-09-14T14:23:53;11.93;;;10.73;;
2850;SDS011;1433;49.976;8.342;2022-09-14T14:26:45;24.17;;;13.67;;
2850;SDS011;1433;49.976;8.342;2022-09-14T14:29:14;21.03;;;15.30;;
2850;SDS011;1433;49.976;8.342;2022-09-14T14:31:42;14.87;;;12.07;;
2850;SDS011;1433;49.976;8.342;2022-09-14T14:34:26;18.40;;;11.63;;
2850;SDS011;1433;49.976;8.342;2022-09-14T14:36:53;19.33;;;13.57;;
2850;SDS011;1433;49.976;8.342;2022-09-14T14:39:22;2.33;;;2.23;;
2850;SDS011;1433;49.976;8.342;2022-09-14T14:41:49;2.13;;;1.93;;
2850;SDS011;1433;49.976;8.342;2022-09-14T14:44:22;0.90;;;0.80;;
2850;SDS011;1433;49.976;8.342;2022-09-14T14:46:52;1.83;;;1.70;;
2850;SDS011;1433;49.976;8.342;2022-09-14T14:49:18;1.37;;;1.27;;
2850;SDS011;1433;49.976;8.342;2022-09-14T14:51:48;0.93;;;0.73;;
2850;SDS011;1433;49.976;8.342;2022-09-14T14:54:15;0.90;;;0.70;;
2850;SDS011;1433;49.976;8.342;2022-09-14T14:56:46;0.90;;;0.70;;
2850;SDS011;1433;49.976;8.342;2022-09-14T14:59:22;0.90;;;0.70;;
2850;SDS011;1433;49.976;8.342;2022-09-14T15:01:44;0.90;;;0.70;;
2850;SDS011;1433;49.976;8.342;2022-09-14T15:04:10;0.90;;;0.80;;
2850;SDS011;1433;49.976;8.342;2022-09-14T15:06:36;0.90;;;0.70;;
2850;SDS011;1433;49.976;8.342;2022-09-14T15:09:04;1.10;;;1.00;;
2850;SDS011;1433;49.976;8.342;2022-09-14T15:11:37;0.90;;;0.70;;
2850;SDS011;1433;49.976;8.342;2022-09-14T15:14:07;1.10;;;0.80;;
2850;SDS011;1433;49.976;8.342;2022-09-14T15:16:37;0.90;;;0.70;;
2850;SDS011;1433;49.976;8.342;2022-09-14T15:19:03;1.17;;;1.07;;
2850;SDS011;1433;49.976;8.342;2022-09-14T15:21:29;0.90;;;0.70;;
2850;SDS011;1433;49.976;8.342;2022-09-14T15:23:55;0.90;;;0.70;;
2850;SDS011;1433;49.976;8.342;2022-09-14T15:26:26;0.90;;;0.70;;
2850;SDS011;1433;49.976;8.342;2022-09-14T15:28:52;0.93;;;0.73;;
2850;SDS011;1433;49.976;8.342;2022-09-14T15:31:18;0.90;;;0.80;;
2850;SDS011;1433;49.976;8.342;2022-09-14T15:33:44;0.90;;;0.70;;
2850;SDS011;1433;49.976;8.342;2022-09-14T15:38:37;0.90;;;0.70;;
2850;SDS011;1433;49.976;8.342;2022-09-14T15:41:03;1.00;;;0.80;;
2850;SDS011;1433;49.976;8.342;2022-09-14T15:43:30;1.10;;;1.00;;
2850;SDS011;1433;49.976;8.342;2022-09-14T15:46:02;1.60;;;1.40;;
2850;SDS011;1433;49.976;8.342;2022-09-14T15:48:28;1.00;;;0.80;;
2850;SDS011;1433;49.976;8.342;2022-09-14T15:50:54;1.00;;;0.80;;
2850;SDS011;1433;49.976;8.342;2022-09-14T15:53:23;1.00;;;0.80;;
2850;SDS011;1433;49.976;8.342;2022-09-14T15:55:49;0.90;;;0.70;;
2850;SDS011;1433;49.976;8.342;2022-09-14T15:58:15;0.90;;;0.80;;
2850;SDS011;1433;49.976;8.342;2022-09-14T16:00:41;0.97;;;0.80;;
2850;SDS011;1433;49.976;8.342;2022-09-14T16:03:09;1.00;;;0.83;;
2850;SDS011;1433;49.976;8.342;2022-09-14T16:05:36;0.90;;;0.80;;
2850;SDS011;1433;49.976;8.342;2022-09-14T16:08:03;0.90;;;0.70;;
2850;SDS011;1433;49.976;8.342;2022-09-14T16:10:30;0.90;;;0.70;;
2850;SDS011;1433;49.976;8.342;2022-09-14T16:12:56;0.93;;;0.77;;
2850;SDS011;1433;49.976;8.342;2022-09-14T16:15:22;0.90;;;0.70;;
2850;SDS011;1433;49.976;8.342;2022-09-14T16:17:49;0.90;;;0.70;;
2850;SDS011;1433;49.976;8.342;2022-09-14T16:20:17;0.90;;;0.70;;
2850;SDS011;1433;49.976;8.342;2022-09-14T16:22:45;0.90;;;0.60;;
2850;SDS011;1433;49.976;8.342;2022-09-14T16:25:13;0.90;;;0.70;;
2850;SDS011;1433;49.976;8.342;2022-09-14T16:27:41;0.90;;;0.70;;
2850;SDS011;1433;49.976;8.342;2022-09-14T16:30:08;3.53;;;1.00;;
2850;SDS011;1433;49.976;8.342;2022-09-14T16:32:34;0.90;;;0.70;;
2850;SDS011;1433;49.976;8.342;2022-09-14T16:35:00;0.90;;;0.73;;
2850;SDS011;1433;49.976;8.342;2022-09-14T16:37:27;0.90;;;0.70;;
2850;SDS011;1433;49.976;8.342;2022-09-14T16:39:53;0.90;;;0.70;;
2850;SDS011;1433;49.976;8.342;2022-09-14T16:42:19;0.90;;;0.70;;
2850;SDS011;1433;49.976;8.342;2022-09-14T16:44:45;0.90;;;0.70;;
2850;SDS011;1433;49.976;8.342;2022-09-14T16:47:12;0.90;;;0.70;;
2850;SDS011;1433;49.976;8.342;2022-09-14T16:49:40;0.90;;;0.70;;
2850;SDS011;1433;49.976;8.342;2022-09-14T16:52:10;1.00;;;0.90;;
2850;SDS011;1433;49.976;8.342;2022-09-14T16:54:37;0.90;;;0.70;;
2850;SDS011;1433;49.976;8.342;2022-09-14T16:57:06;1.03;;;0.93;;
2850;SDS011;1433;49.976;8.342;2022-09-14T16:59:32;1.27;;;1.17;;
2850;SDS011;1433;49.976;8.342;2022-09-14T17:01:58;1.00;;;0.90;;
2850;SDS011;1433;49.976;8.342;2022-09-14T17:04:24;1.00;;;0.90;;
2850;SDS011;1433;49.976;8.342;2022-09-14T17:06:51;1.00;;;0.87;;
2850;SDS011;1433;49.976;8.342;2022-09-14T17:09:18;1.30;;;1.20;;
2850;SDS011;1433;49.976;8.342;2022-09-14T17:11:47;1.47;;;1.23;;
2850;SDS011;1433;49.976;8.342;2022-09-14T17:14:15;1.10;;;0.97;;
2850;SDS011;1433;49.976;8.342;2022-09-14T17:16:43;0.90;;;0.70;;
2850;SDS011;1433;49.976;8.342;2022-09-14T17:19:10;1.00;;;0.80;;
2850;SDS011;1433;49.976;8.342;2022-09-14T17:21:40;1.20;;;1.10;;
2850;SDS011;1433;49.976;8.342;2022-09-14T17:24:07;1.03;;;0.93;;
2850;SDS011;1433;49.976;8.342;2022-09-14T17:26:34;1.00;;;0.90;;
2850;SDS011;1433;49.976;8.342;2022-09-14T17:29:01;0.90;;;0.80;;
2850;SDS011;1433;49.976;8.342;2022-09-14T17:31:30;1.10;;;0.80;;
2850;SDS011;1433;49.976;8.342;2022-09-14T17:33:59;1.40;;;0.80;;
2850;SDS011;1433;49.976;8.342;2022-09-14T17:36:27;0.90;;;0.70;;
2850;SDS011;1433;49.976;8.342;2022-09-14T17:38:57;0.90;;;0.70;;